sensor_id;sensor_type;location;lat;lon;timestamp;temperature;humidity
9157;DHT22;4613;48.392;9.998;2022-10-26T00:01:10;12.70;99.90
9157;DHT22;4613;48.392;9.998;2022-10-26T00:04:00;12.80;99.90
9157;DHT22;4613;48.392;9.998;2022-10-26T00:06:50;12.50;99.90
9157;DHT22;4613;48.392;9.998;2022-10-26T00:09:40;12.60;99.90
9157;DHT22;4613;48.392;9.998;2022-10-26T00:12:29;12.70;99.90
9157;DHT22;4613;48.392;9.998;2022-10-26T00:15:20;12.60;99.90
9157;DHT22;4613;48.392;9.998;2022-10-26T00:18:09;12.60;99.90
9157;DHT22;4613;48.392;9.998;2022-10-26T00:21:06;12.70;99.90
9157;DHT22;4613;48.392;9.998;2022-10-26T00:23:58;12.70;99.90
9157;DHT22;4613;48.392;9.998;2022-10-26T00:26:48;12.70;99.90
9157;DHT22;4613;48.392;9.998;2022-10-26T00:29:38;12.40;99.90
9157;DHT22;4613;48.392;9.998;2022-10-26T00:32:27;12.50;99.90
9157;DHT22;4613;48.392;9.998;2022-10-26T00:35:17;12.60;99.90
9157;DHT22;4613;48.392;9.998;2022-10-26T00:38:06;12.70;99.90
9157;DHT22;4613;48.392;9.998;2022-10-26T00:40:57;12.60;99.90
9157;DHT22;4613;48.392;9.998;2022-10-26T00:43:47;12.50;99.90
9157;DHT22;4613;48.392;9.998;2022-10-26T00:46:37;12.60;99.90
9157;DHT22;4613;48.392;9.998;2022-10-26T00:49:27;12.40;99.90
9157;DHT22;4613;48.392;9.998;2022-10-26T00:52:17;12.50;99.90
9157;DHT22;4613;48.392;9.998;2022-10-26T00:55:08;12.70;99.90
9157;DHT22;4613;48.392;9.998;2022-10-26T00:57:58;12.70;99.90
9157;DHT22;4613;48.392;9.998;2022-10-26T01:00:49;12.70;99.90
9157;DHT22;4613;48.392;9.998;2022-10-26T01:03:38;12.40;99.90
9157;DHT22;4613;48.392;9.998;2022-10-26T01:06:29;12.50;99.90
9157;DHT22;4613;48.392;9.998;2022-10-26T01:09:20;12.60;99.90
9157;DHT22;4613;48.392;9.998;2022-10-26T01:12:10;12.60;99.90
9157;DHT22;4613;48.392;9.998;2022-10-26T01:14:59;12.70;99.90
9157;DHT22;4613;48.392;9.998;2022-10-26T01:18:03;12.40;99.90
9157;DHT22;4613;48.392;9.998;2022-10-26T01:21:00;12.20;99.90
9157;DHT22;4613;48.392;9.998;2022-10-26T01:23:58;12.20;99.90
9157;DHT22;4613;48.392;9.998;2022-10-26T01:30:18;12.30;99.90
9157;DHT22;4613;48.392;9.998;2022-10-26T01:33:32;12.20;99.90
9157;DHT22;4613;48.392;9.998;2022-10-26T01:36:39;12.40;99.90
9157;DHT22;4613;48.392;9.998;2022-10-26T01:39:39;12.40;99.90
9157;DHT22;4613;48.392;9.998;2022-10-26T01:42:30;12.60;99.90
9157;DHT22;4613;48.392;9.998;2022-10-26T01:45:20;12.50;99.90
9157;DHT22;4613;48.392;9.998;2022-10-26T01:48:12;12.00;99.90
9157;DHT22;4613;48.392;9.998;2022-10-26T01:51:03;11.60;99.90
9157;DHT22;4613;48.392;9.998;2022-10-26T01:53:54;11.80;99.90
9157;DHT22;4613;48.392;9.998;2022-10-26T01:56:52;11.70;99.90
9157;DHT22;4613;48.392;9.998;2022-10-26T02:02:46;12.00;99.90
9157;DHT22;4613;48.392;9.998;2022-10-26T02:08:56;12.10;99.90
9157;DHT22;4613;48.392;9.998;2022-10-26T02:11:49;12.20;99.90
9157;DHT22;4613;48.392;9.998;2022-10-26T02:15:07;12.20;99.90
9157;DHT22;4613;48.392;9.998;2022-10-26T02:18:03;12.20;99.90
9157;DHT22;4613;48.392;9.998;2022-10-26T02:21:00;12.20;99.90
9157;DHT22;4613;48.392;9.998;2022-10-26T02:23:54;12.30;99.90
9157;DHT22;4613;48.392;9.998;2022-10-26T02:26:46;12.30;99.90
9157;DHT22;4613;48.392;9.998;2022-10-26T02:29:37;12.40;99.90
9157;DHT22;4613;48.392;9.998;2022-10-26T02:32:31;12.30;99.90
9157;DHT22;4613;48.392;9.998;2022-10-26T02:35:28;12.20;99.90
9157;DHT22;4613;48.392;9.998;2022-10-26T02:38:19;12.10;99.90
9157;DHT22;4613;48.392;9.998;2022-10-26T02:41:09;12.10;99.90
9157;DHT22;4613;48.392;9.998;2022-10-26T02:44:20;12.20;99.90
9157;DHT22;4613;48.392;9.998;2022-10-26T02:47:12;12.20;99.90
9157;DHT22;4613;48.392;9.998;2022-10-26T02:50:02;12.20;99.90
9157;DHT22;4613;48.392;9.998;2022-10-26T02:53:00;12.20;99.90
9157;DHT22;4613;48.392;9.998;2022-10-26T02:55:51;12.20;99.90
9157;DHT22;4613;48.392;9.998;2022-10-26T02:58:44;12.10;99.90
9157;DHT22;4613;48.392;9.998;2022-10-26T03:01:34;12.20;99.90
9157;DHT22;4613;48.392;9.998;2022-10-26T03:04:29;12.20;99.90
9157;DHT22;4613;48.392;9.998;2022-10-26T03:07:22;12.20;99.90
9157;DHT22;4613;48.392;9.998;2022-10-26T03:10:12;12.00;99.90
9157;DHT22;4613;48.392;9.998;2022-10-26T03:13:01;12.00;99.90
9157;DHT22;4613;48.392;9.998;2022-10-26T03:15:55;12.10;99.90
9157;DHT22;4613;48.392;9.998;2022-10-26T03:18:45;12.10;99.90
9157;DHT22;4613;48.392;9.998;2022-10-26T03:21:35;12.10;99.90
9157;DHT22;4613;48.392;9.998;2022-10-26T03:24:25;12.20;99.90
9157;DHT22;4613;48.392;9.998;2022-10-26T03:27:14;12.20;99.90
9157;DHT22;4613;48.392;9.998;2022-10-26T03:30:04;12.20;99.90
9157;DHT22;4613;48.392;9.998;2022-10-26T03:32:54;11.90;99.90
9157;DHT22;4613;48.392;9.998;2022-10-26T03:35:44;11.70;99.90
9157;DHT22;4613;48.392;9.998;2022-10-26T03:38:33;11.80;99.90
9157;DHT22;4613;48.392;9.998;2022-10-26T03:41:23;12.00;99.90
9157;DHT22;4613;48.392;9.998;2022-10-26T03:44:13;12.20;99.90
9157;DHT22;4613;48.392;9.998;2022-10-26T03:47:02;11.80;99.90
9157;DHT22;4613;48.392;9.998;2022-10-26T03:49:52;11.60;99.90
9157;DHT22;4613;48.392;9.998;2022-10-26T03:52:41;11.60;99.90
9157;DHT22;4613;48.392;9.998;2022-10-26T03:55:31;11.20;99.90
9157;DHT22;4613;48.392;9.998;2022-10-26T03:58:21;11.40;99.90
9157;DHT22;4613;48.392;9.998;2022-10-26T04:01:10;11.20;99.90
9157;DHT22;4613;48.392;9.998;2022-10-26T04:04:00;11.30;99.90
9157;DHT22;4613;48.392;9.998;2022-10-26T04:06:50;11.60;99.90
9157;DHT22;4613;48.392;9.998;2022-10-26T04:09:39;11.80;99.90
9157;DHT22;4613;48.392;9.998;2022-10-26T04:12:28;11.60;99.90
9157;DHT22;4613;48.392;9.998;2022-10-26T04:15:18;11.80;99.90
9157;DHT22;4613;48.392;9.998;2022-10-26T04:18:08;11.80;99.90
9157;DHT22;4613;48.392;9.998;2022-10-26T04:21:01;11.70;99.90
9157;DHT22;4613;48.392;9.998;2022-10-26T04:23:50;11.70;99.90
9157;DHT22;4613;48.392;9.998;2022-10-26T04:26:40;11.30;99.90
9157;DHT22;4613;48.392;9.998;2022-10-26T04:29:29;11.60;99.90
9157;DHT22;4613;48.392;9.998;2022-10-26T04:32:19;11.50;99.90
9157;DHT22;4613;48.392;9.998;2022-10-26T04:35:09;11.70;99.90
9157;DHT22;4613;48.392;9.998;2022-10-26T04:38:00;11.60;99.90
9157;DHT22;4613;48.392;9.998;2022-10-26T04:40:50;11.60;99.90
9157;DHT22;4613;48.392;9.998;2022-10-26T04:43:39;11.80;99.90
9157;DHT22;4613;48.392;9.998;2022-10-26T04:46:29;12.00;99.90
9157;DHT22;4613;48.392;9.998;2022-10-26T04:49:20;11.70;99.90
9157;DHT22;4613;48.392;9.998;2022-10-26T04:52:09;11.30;99.90
9157;DHT22;4613;48.392;9.998;2022-10-26T04:54:59;11.20;99.90
9157;DHT22;4613;48.392;9.998;2022-10-26T04:57:49;11.10;99.90
9157;DHT22;4613;48.392;9.998;2022-10-26T05:00:39;11.20;99.90
9157;DHT22;4613;48.392;9.998;2022-10-26T05:03:28;11.50;99.90
9157;DHT22;4613;48.392;9.998;2022-10-26T05:06:18;11.60;99.90
9157;DHT22;4613;48.392;9.998;2022-10-26T05:09:08;11.80;99.90
9157;DHT22;4613;48.392;9.998;2022-10-26T05:11:57;11.90;99.90
9157;DHT22;4613;48.392;9.998;2022-10-26T05:14:47;11.90;99.90
9157;DHT22;4613;48.392;9.998;2022-10-26T05:17:37;11.90;99.90
9157;DHT22;4613;48.392;9.998;2022-10-26T05:20:27;12.00;99.90
9157;DHT22;4613;48.392;9.998;2022-10-26T05:23:18;12.10;99.90
9157;DHT22;4613;48.392;9.998;2022-10-26T05:26:08;11.90;99.90
9157;DHT22;4613;48.392;9.998;2022-10-26T05:28:58;11.80;99.90
9157;DHT22;4613;48.392;9.998;2022-10-26T05:31:47;11.40;99.90
9157;DHT22;4613;48.392;9.998;2022-10-26T05:34:36;11.20;99.90
9157;DHT22;4613;48.392;9.998;2022-10-26T05:37:28;11.20;99.90
9157;DHT22;4613;48.392;9.998;2022-10-26T05:40:18;11.10;99.90
9157;DHT22;4613;48.392;9.998;2022-10-26T05:43:08;10.90;99.90
9157;DHT22;4613;48.392;9.998;2022-10-26T05:45:58;11.10;99.90
9157;DHT22;4613;48.392;9.998;2022-10-26T05:48:47;11.10;99.90
9157;DHT22;4613;48.392;9.998;2022-10-26T05:51:37;11.10;99.90
9157;DHT22;4613;48.392;9.998;2022-10-26T05:54:27;11.70;99.90
9157;DHT22;4613;48.392;9.998;2022-10-26T05:57:17;12.40;99.90
9157;DHT22;4613;48.392;9.998;2022-10-26T06:00:19;12.40;99.90
9157;DHT22;4613;48.392;9.998;2022-10-26T06:06:22;11.40;99.90
9157;DHT22;4613;48.392;9.998;2022-10-26T06:09:13;11.60;99.90
9157;DHT22;4613;48.392;9.998;2022-10-26T06:12:03;13.00;99.90
9157;DHT22;4613;48.392;9.998;2022-10-26T06:14:53;12.80;99.90
9157;DHT22;4613;48.392;9.998;2022-10-26T06:18:00;12.70;99.90
9157;DHT22;4613;48.392;9.998;2022-10-26T06:21:05;12.60;99.90
9157;DHT22;4613;48.392;9.998;2022-10-26T06:24:05;12.80;99.90
9157;DHT22;4613;48.392;9.998;2022-10-26T06:30:04;13.50;99.90
9157;DHT22;4613;48.392;9.998;2022-10-26T06:32:55;13.10;99.90
9157;DHT22;4613;48.392;9.998;2022-10-26T06:35:50;12.80;99.90
9157;DHT22;4613;48.392;9.998;2022-10-26T06:38:43;13.10;99.90
9157;DHT22;4613;48.392;9.998;2022-10-26T06:41:34;13.00;99.90
9157;DHT22;4613;48.392;9.998;2022-10-26T06:44:25;12.70;99.90
9157;DHT22;4613;48.392;9.998;2022-10-26T06:47:25;12.70;99.90
9157;DHT22;4613;48.392;9.998;2022-10-26T06:56:13;13.40;99.90
9157;DHT22;4613;48.392;9.998;2022-10-26T06:59:07;13.90;99.90
9157;DHT22;4613;48.392;9.998;2022-10-26T07:02:02;14.10;99.90
9157;DHT22;4613;48.392;9.998;2022-10-26T07:04:52;14.10;99.90
9157;DHT22;4613;48.392;9.998;2022-10-26T07:07:43;14.50;99.90
9157;DHT22;4613;48.392;9.998;2022-10-26T07:10:33;14.60;99.90
9157;DHT22;4613;48.392;9.998;2022-10-26T07:13:27;14.30;99.90
9157;DHT22;4613;48.392;9.998;2022-10-26T07:16:16;14.30;99.90
9157;DHT22;4613;48.392;9.998;2022-10-26T07:19:07;13.90;99.90
9157;DHT22;4613;48.392;9.998;2022-10-26T07:21:57;13.40;99.90
9157;DHT22;4613;48.392;9.998;2022-10-26T07:24:48;13.20;99.90
9157;DHT22;4613;48.392;9.998;2022-10-26T07:27:40;13.00;99.90
9157;DHT22;4613;48.392;9.998;2022-10-26T07:30:30;13.50;99.90
9157;DHT22;4613;48.392;9.998;2022-10-26T07:33:19;13.20;99.90
9157;DHT22;4613;48.392;9.998;2022-10-26T07:36:09;13.60;99.90
9157;DHT22;4613;48.392;9.998;2022-10-26T07:38:59;13.90;99.90
9157;DHT22;4613;48.392;9.998;2022-10-26T07:41:49;13.90;99.90
9157;DHT22;4613;48.392;9.998;2022-10-26T07:44:38;14.00;99.90
9157;DHT22;4613;48.392;9.998;2022-10-26T07:47:28;14.20;99.90
9157;DHT22;4613;48.392;9.998;2022-10-26T07:50:17;13.60;99.90
9157;DHT22;4613;48.392;9.998;2022-10-26T07:53:07;13.10;99.90
9157;DHT22;4613;48.392;9.998;2022-10-26T07:55:57;13.20;99.90
9157;DHT22;4613;48.392;9.998;2022-10-26T07:58:47;12.90;99.90
9157;DHT22;4613;48.392;9.998;2022-10-26T08:01:36;12.90;99.90
9157;DHT22;4613;48.392;9.998;2022-10-26T08:04:26;13.00;99.90
9157;DHT22;4613;48.392;9.998;2022-10-26T08:07:15;13.10;99.90
9157;DHT22;4613;48.392;9.998;2022-10-26T08:10:06;12.90;99.90
9157;DHT22;4613;48.392;9.998;2022-10-26T08:12:55;12.90;99.90
9157;DHT22;4613;48.392;9.998;2022-10-26T08:15:45;13.30;99.90
9157;DHT22;4613;48.392;9.998;2022-10-26T08:18:35;13.80;99.90
9157;DHT22;4613;48.392;9.998;2022-10-26T08:21:25;14.20;99.90
9157;DHT22;4613;48.392;9.998;2022-10-26T08:24:14;15.20;99.90
9157;DHT22;4613;48.392;9.998;2022-10-26T08:27:04;15.50;99.90
9157;DHT22;4613;48.392;9.998;2022-10-26T08:29:54;15.10;99.90
9157;DHT22;4613;48.392;9.998;2022-10-26T08:32:44;14.90;99.90
9157;DHT22;4613;48.392;9.998;2022-10-26T08:35:34;14.80;99.90
9157;DHT22;4613;48.392;9.998;2022-10-26T08:38:23;15.00;99.90
9157;DHT22;4613;48.392;9.998;2022-10-26T08:41:13;14.80;99.90
9157;DHT22;4613;48.392;9.998;2022-10-26T08:44:17;14.50;99.90
9157;DHT22;4613;48.392;9.998;2022-10-26T08:47:20;14.40;99.90
9157;DHT22;4613;48.392;9.998;2022-10-26T08:50:44;14.30;99.90
9157;DHT22;4613;48.392;9.998;2022-10-26T08:53:42;14.30;99.90
9157;DHT22;4613;48.392;9.998;2022-10-26T08:56:41;14.50;99.90
9157;DHT22;4613;48.392;9.998;2022-10-26T09:02:40;14.50;99.90
9157;DHT22;4613;48.392;9.998;2022-10-26T09:05:37;14.70;99.90
9157;DHT22;4613;48.392;9.998;2022-10-26T09:18:12;14.50;99.90
9157;DHT22;4613;48.392;9.998;2022-10-26T09:21:16;14.60;99.90
9157;DHT22;4613;48.392;9.998;2022-10-26T09:27:43;14.50;99.90
9157;DHT22;4613;48.392;9.998;2022-10-26T09:30:34;14.40;99.90
9157;DHT22;4613;48.392;9.998;2022-10-26T09:33:24;14.50;99.90
9157;DHT22;4613;48.392;9.998;2022-10-26T09:36:19;14.60;99.90
9157;DHT22;4613;48.392;9.998;2022-10-26T09:42:42;15.00;99.90
9157;DHT22;4613;48.392;9.998;2022-10-26T09:45:41;15.50;99.90
9157;DHT22;4613;48.392;9.998;2022-10-26T09:48:40;15.10;99.90
9157;DHT22;4613;48.392;9.998;2022-10-26T09:51:35;15.30;99.90
9157;DHT22;4613;48.392;9.998;2022-10-26T09:54:25;15.30;99.90
9157;DHT22;4613;48.392;9.998;2022-10-26T09:57:17;15.30;99.90
9157;DHT22;4613;48.392;9.998;2022-10-26T10:00:15;15.30;99.90
9157;DHT22;4613;48.392;9.998;2022-10-26T10:03:34;15.40;99.90
9157;DHT22;4613;48.392;9.998;2022-10-26T10:06:23;15.60;99.90
9157;DHT22;4613;48.392;9.998;2022-10-26T10:09:20;15.70;99.90
9157;DHT22;4613;48.392;9.998;2022-10-26T10:12:20;15.80;99.90
9157;DHT22;4613;48.392;9.998;2022-10-26T10:15:23;15.80;99.90
9157;DHT22;4613;48.392;9.998;2022-10-26T10:18:19;15.80;99.90
9157;DHT22;4613;48.392;9.998;2022-10-26T10:21:09;15.90;99.90
9157;DHT22;4613;48.392;9.998;2022-10-26T10:23:59;15.90;99.90
9157;DHT22;4613;48.392;9.998;2022-10-26T10:30:28;16.00;99.90
9157;DHT22;4613;48.392;9.998;2022-10-26T10:33:18;16.10;99.90
9157;DHT22;4613;48.392;9.998;2022-10-26T10:36:12;16.10;99.90
9157;DHT22;4613;48.392;9.998;2022-10-26T10:42:22;16.30;99.90
9157;DHT22;4613;48.392;9.998;2022-10-26T10:45:22;16.20;99.90
9157;DHT22;4613;48.392;9.998;2022-10-26T10:51:05;16.30;99.90
9157;DHT22;4613;48.392;9.998;2022-10-26T10:54:02;16.30;99.90
9157;DHT22;4613;48.392;9.998;2022-10-26T10:57:42;16.30;99.90
9157;DHT22;4613;48.392;9.998;2022-10-26T11:00:07;16.40;99.90
9157;DHT22;4613;48.392;9.998;2022-10-26T11:06:15;16.40;99.90
9157;DHT22;4613;48.392;9.998;2022-10-26T11:09:06;16.50;99.90
9157;DHT22;4613;48.392;9.998;2022-10-26T11:15:18;17.10;99.90
9157;DHT22;4613;48.392;9.998;2022-10-26T11:18:16;16.90;99.90
9157;DHT22;4613;48.392;9.998;2022-10-26T11:21:29;16.90;99.90
9157;DHT22;4613;48.392;9.998;2022-10-26T11:24:26;17.30;99.90
9157;DHT22;4613;48.392;9.998;2022-10-26T11:30:17;17.80;99.90
9157;DHT22;4613;48.392;9.998;2022-10-26T11:33:13;18.20;99.90
9157;DHT22;4613;48.392;9.998;2022-10-26T11:36:08;18.80;99.90
9157;DHT22;4613;48.392;9.998;2022-10-26T11:39:18;19.60;99.90
9157;DHT22;4613;48.392;9.998;2022-10-26T11:42:20;19.50;99.90
9157;DHT22;4613;48.392;9.998;2022-10-26T11:45:19;19.90;99.90
9157;DHT22;4613;48.392;9.998;2022-10-26T11:48:39;19.80;99.90
9157;DHT22;4613;48.392;9.998;2022-10-26T11:51:35;19.60;99.90
9157;DHT22;4613;48.392;9.998;2022-10-26T11:54:33;19.50;99.90
9157;DHT22;4613;48.392;9.998;2022-10-26T11:57:27;19.70;99.90
9157;DHT22;4613;48.392;9.998;2022-10-26T12:00:19;19.90;99.90
9157;DHT22;4613;48.392;9.998;2022-10-26T12:03:13;19.80;99.90
9157;DHT22;4613;48.392;9.998;2022-10-26T12:06:04;19.70;99.90
9157;DHT22;4613;48.392;9.998;2022-10-26T12:09:12;20.20;99.90
9157;DHT22;4613;48.392;9.998;2022-10-26T12:12:41;20.10;99.90
9157;DHT22;4613;48.392;9.998;2022-10-26T12:18:46;20.20;99.90
9157;DHT22;4613;48.392;9.998;2022-10-26T12:21:36;20.20;99.90
9157;DHT22;4613;48.392;9.998;2022-10-26T12:24:28;20.30;99.90
9157;DHT22;4613;48.392;9.998;2022-10-26T12:27:32;20.40;99.90
9157;DHT22;4613;48.392;9.998;2022-10-26T12:30:36;20.30;99.90
9157;DHT22;4613;48.392;9.998;2022-10-26T12:33:29;20.00;99.90
9157;DHT22;4613;48.392;9.998;2022-10-26T12:39:41;19.20;99.90
9157;DHT22;4613;48.392;9.998;2022-10-26T12:42:30;18.90;99.90
9157;DHT22;4613;48.392;9.998;2022-10-26T12:45:28;18.90;99.90
9157;DHT22;4613;48.392;9.998;2022-10-26T12:48:42;18.90;99.90
9157;DHT22;4613;48.392;9.998;2022-10-26T12:54:34;18.90;99.90
9157;DHT22;4613;48.392;9.998;2022-10-26T12:57:44;19.00;99.90
9157;DHT22;4613;48.392;9.998;2022-10-26T13:00:40;19.20;99.90
9157;DHT22;4613;48.392;9.998;2022-10-26T13:04:18;19.30;99.90
9157;DHT22;4613;48.392;9.998;2022-10-26T13:07:20;19.40;99.90
9157;DHT22;4613;48.392;9.998;2022-10-26T13:13:05;19.90;99.90
9157;DHT22;4613;48.392;9.998;2022-10-26T13:15:56;20.00;99.90
9157;DHT22;4613;48.392;9.998;2022-10-26T13:18:52;20.00;99.90
9157;DHT22;4613;48.392;9.998;2022-10-26T13:21:46;20.00;99.90
9157;DHT22;4613;48.392;9.998;2022-10-26T13:24:36;19.80;99.90
9157;DHT22;4613;48.392;9.998;2022-10-26T13:30:42;19.60;99.90
9157;DHT22;4613;48.392;9.998;2022-10-26T13:33:38;19.50;99.90
9157;DHT22;4613;48.392;9.998;2022-10-26T13:39:44;19.30;99.90
9157;DHT22;4613;48.392;9.998;2022-10-26T13:42:55;19.30;99.90
9157;DHT22;4613;48.392;9.998;2022-10-26T13:45:53;19.30;99.90
9157;DHT22;4613;48.392;9.998;2022-10-26T13:48:45;19.30;99.90
9157;DHT22;4613;48.392;9.998;2022-10-26T13:51:53;19.30;99.90
9157;DHT22;4613;48.392;9.998;2022-10-26T13:54:56;19.50;99.90
9157;DHT22;4613;48.392;9.998;2022-10-26T14:01:21;19.70;99.90
9157;DHT22;4613;48.392;9.998;2022-10-26T14:04:16;19.80;99.90
9157;DHT22;4613;48.392;9.998;2022-10-26T14:07:22;19.80;99.90
9157;DHT22;4613;48.392;9.998;2022-10-26T14:13:15;19.70;99.90
9157;DHT22;4613;48.392;9.998;2022-10-26T14:16:09;19.80;99.90
9157;DHT22;4613;48.392;9.998;2022-10-26T14:18:59;19.70;99.90
9157;DHT22;4613;48.392;9.998;2022-10-26T14:21:49;19.60;99.90
9157;DHT22;4613;48.392;9.998;2022-10-26T14:24:38;19.70;99.90
9157;DHT22;4613;48.392;9.998;2022-10-26T14:27:37;19.70;99.90
9157;DHT22;4613;48.392;9.998;2022-10-26T14:30:29;19.70;99.90
9157;DHT22;4613;48.392;9.998;2022-10-26T14:33:24;19.60;99.90
9157;DHT22;4613;48.392;9.998;2022-10-26T14:36:14;19.60;99.90
9157;DHT22;4613;48.392;9.998;2022-10-26T14:39:07;19.60;99.90
9157;DHT22;4613;48.392;9.998;2022-10-26T14:41:58;19.60;99.90
9157;DHT22;4613;48.392;9.998;2022-10-26T14:44:49;19.60;99.90
9157;DHT22;4613;48.392;9.998;2022-10-26T14:47:43;19.60;99.90
9157;DHT22;4613;48.392;9.998;2022-10-26T14:50:36;19.60;99.90
9157;DHT22;4613;48.392;9.998;2022-10-26T14:53:36;19.50;99.90
9157;DHT22;4613;48.392;9.998;2022-10-26T14:56:38;19.50;99.90
9157;DHT22;4613;48.392;9.998;2022-10-26T14:59:31;19.40;99.90
9157;DHT22;4613;48.392;9.998;2022-10-26T15:02:21;19.40;99.90
9157;DHT22;4613;48.392;9.998;2022-10-26T15:08:39;19.10;99.90
9157;DHT22;4613;48.392;9.998;2022-10-26T15:11:30;19.10;99.90
9157;DHT22;4613;48.392;9.998;2022-10-26T15:14:20;19.00;99.90
9157;DHT22;4613;48.392;9.998;2022-10-26T15:17:23;19.00;99.90
9157;DHT22;4613;48.392;9.998;2022-10-26T15:20:21;18.90;99.90
9157;DHT22;4613;48.392;9.998;2022-10-26T15:23:12;18.90;99.90
9157;DHT22;4613;48.392;9.998;2022-10-26T15:26:02;18.90;99.90
9157;DHT22;4613;48.392;9.998;2022-10-26T15:28:53;18.80;99.90
9157;DHT22;4613;48.392;9.998;2022-10-26T15:31:42;18.80;99.90
9157;DHT22;4613;48.392;9.998;2022-10-26T15:34:32;18.70;99.90
9157;DHT22;4613;48.392;9.998;2022-10-26T15:37:21;18.60;99.90
9157;DHT22;4613;48.392;9.998;2022-10-26T15:40:12;18.60;99.90
9157;DHT22;4613;48.392;9.998;2022-10-26T15:43:01;18.50;99.90
9157;DHT22;4613;48.392;9.998;2022-10-26T15:45:51;18.40;99.90
9157;DHT22;4613;48.392;9.998;2022-10-26T15:48:48;18.40;99.90
9157;DHT22;4613;48.392;9.998;2022-10-26T15:51:44;18.30;99.90
9157;DHT22;4613;48.392;9.998;2022-10-26T15:54:34;18.20;99.90
9157;DHT22;4613;48.392;9.998;2022-10-26T15:57:25;18.10;99.90
9157;DHT22;4613;48.392;9.998;2022-10-26T16:00:16;18.10;99.90
9157;DHT22;4613;48.392;9.998;2022-10-26T16:03:07;18.00;99.90
9157;DHT22;4613;48.392;9.998;2022-10-26T16:05:59;18.00;99.90
9157;DHT22;4613;48.392;9.998;2022-10-26T16:08:51;17.90;99.90
9157;DHT22;4613;48.392;9.998;2022-10-26T16:11:42;17.90;99.90
9157;DHT22;4613;48.392;9.998;2022-10-26T16:14:32;17.70;99.90
9157;DHT22;4613;48.392;9.998;2022-10-26T16:17:21;17.70;99.90
9157;DHT22;4613;48.392;9.998;2022-10-26T16:20:20;17.70;99.90
9157;DHT22;4613;48.392;9.998;2022-10-26T16:23:13;17.70;99.90
9157;DHT22;4613;48.392;9.998;2022-10-26T16:26:03;17.70;99.90
9157;DHT22;4613;48.392;9.998;2022-10-26T16:28:52;17.70;99.90
9157;DHT22;4613;48.392;9.998;2022-10-26T16:31:42;17.60;99.90
9157;DHT22;4613;48.392;9.998;2022-10-26T16:34:31;17.60;99.90
9157;DHT22;4613;48.392;9.998;2022-10-26T16:37:21;17.60;99.90
9157;DHT22;4613;48.392;9.998;2022-10-26T16:40:10;17.50;99.90
9157;DHT22;4613;48.392;9.998;2022-10-26T16:43:00;17.50;99.90
9157;DHT22;4613;48.392;9.998;2022-10-26T16:45:50;17.50;99.90
9157;DHT22;4613;48.392;9.998;2022-10-26T16:48:41;17.40;99.90
9157;DHT22;4613;48.392;9.998;2022-10-26T16:51:31;17.30;99.90
9157;DHT22;4613;48.392;9.998;2022-10-26T16:54:20;17.20;99.90
9157;DHT22;4613;48.392;9.998;2022-10-26T16:57:11;17.20;99.90
9157;DHT22;4613;48.392;9.998;2022-10-26T17:00:01;17.10;99.90
9157;DHT22;4613;48.392;9.998;2022-10-26T17:02:51;17.10;99.90
9157;DHT22;4613;48.392;9.998;2022-10-26T17:05:41;17.00;99.90
9157;DHT22;4613;48.392;9.998;2022-10-26T17:08:32;17.00;99.90
9157;DHT22;4613;48.392;9.998;2022-10-26T17:11:22;16.90;99.90
9157;DHT22;4613;48.392;9.998;2022-10-26T17:14:11;16.90;99.90
9157;DHT22;4613;48.392;9.998;2022-10-26T17:17:00;16.90;99.90
9157;DHT22;4613;48.392;9.998;2022-10-26T17:19:50;16.80;99.90
9157;DHT22;4613;48.392;9.998;2022-10-26T17:22:39;16.80;99.90
9157;DHT22;4613;48.392;9.998;2022-10-26T17:25:33;16.80;99.90
9157;DHT22;4613;48.392;9.998;2022-10-26T17:28:22;16.60;99.90
9157;DHT22;4613;48.392;9.998;2022-10-26T17:31:13;16.40;99.90
9157;DHT22;4613;48.392;9.998;2022-10-26T17:34:03;16.40;99.90
9157;DHT22;4613;48.392;9.998;2022-10-26T17:36:52;16.40;99.90
9157;DHT22;4613;48.392;9.998;2022-10-26T17:39:42;16.50;99.90
9157;DHT22;4613;48.392;9.998;2022-10-26T17:42:31;16.40;99.90
9157;DHT22;4613;48.392;9.998;2022-10-26T17:45:20;16.40;99.90
9157;DHT22;4613;48.392;9.998;2022-10-26T17:48:10;16.30;99.90
9157;DHT22;4613;48.392;9.998;2022-10-26T17:51:04;16.30;99.90
9157;DHT22;4613;48.392;9.998;2022-10-26T17:53:54;16.30;99.90
9157;DHT22;4613;48.392;9.998;2022-10-26T17:56:45;16.30;99.90
9157;DHT22;4613;48.392;9.998;2022-10-26T17:59:35;16.10;99.90
9157;DHT22;4613;48.392;9.998;2022-10-26T18:02:25;15.90;99.90
9157;DHT22;4613;48.392;9.998;2022-10-26T18:05:14;15.90;99.90
9157;DHT22;4613;48.392;9.998;2022-10-26T18:08:04;15.80;99.90
9157;DHT22;4613;48.392;9.998;2022-10-26T18:10:53;15.80;99.90
9157;DHT22;4613;48.392;9.998;2022-10-26T18:13:47;16.00;99.90
9157;DHT22;4613;48.392;9.998;2022-10-26T18:16:36;16.10;99.90
9157;DHT22;4613;48.392;9.998;2022-10-26T18:19:26;16.10;99.90
9157;DHT22;4613;48.392;9.998;2022-10-26T18:22:16;15.90;99.90
9157;DHT22;4613;48.392;9.998;2022-10-26T18:25:06;15.80;99.90
9157;DHT22;4613;48.392;9.998;2022-10-26T18:27:55;15.80;99.90
9157;DHT22;4613;48.392;9.998;2022-10-26T18:30:45;15.80;99.90
9157;DHT22;4613;48.392;9.998;2022-10-26T18:33:35;15.80;99.90
9157;DHT22;4613;48.392;9.998;2022-10-26T18:36:25;15.60;99.90
9157;DHT22;4613;48.392;9.998;2022-10-26T18:39:15;15.60;99.90
9157;DHT22;4613;48.392;9.998;2022-10-26T18:42:06;15.70;99.90
9157;DHT22;4613;48.392;9.998;2022-10-26T18:44:57;15.50;99.90
9157;DHT22;4613;48.392;9.998;2022-10-26T18:47:50;15.30;99.90
9157;DHT22;4613;48.392;9.998;2022-10-26T18:50:42;15.30;99.90
9157;DHT22;4613;48.392;9.998;2022-10-26T18:53:33;15.30;99.90
9157;DHT22;4613;48.392;9.998;2022-10-26T18:56:23;15.30;99.90
9157;DHT22;4613;48.392;9.998;2022-10-26T18:59:13;15.40;99.90
9157;DHT22;4613;48.392;9.998;2022-10-26T19:02:02;15.40;99.90
9157;DHT22;4613;48.392;9.998;2022-10-26T19:04:52;15.20;99.90
9157;DHT22;4613;48.392;9.998;2022-10-26T19:07:42;15.10;99.90
9157;DHT22;4613;48.392;9.998;2022-10-26T19:10:32;14.90;99.90
9157;DHT22;4613;48.392;9.998;2022-10-26T19:13:21;15.00;99.90
9157;DHT22;4613;48.392;9.998;2022-10-26T19:16:16;14.90;99.90
9157;DHT22;4613;48.392;9.998;2022-10-26T19:19:05;15.10;99.90
9157;DHT22;4613;48.392;9.998;2022-10-26T19:21:56;15.00;99.90
9157;DHT22;4613;48.392;9.998;2022-10-26T19:24:48;14.80;99.90
9157;DHT22;4613;48.392;9.998;2022-10-26T19:27:38;14.80;99.90
9157;DHT22;4613;48.392;9.998;2022-10-26T19:30:27;14.90;99.90
9157;DHT22;4613;48.392;9.998;2022-10-26T19:33:17;15.00;99.90
9157;DHT22;4613;48.392;9.998;2022-10-26T19:36:09;14.80;99.90
9157;DHT22;4613;48.392;9.998;2022-10-26T19:38:59;14.60;99.90
9157;DHT22;4613;48.392;9.998;2022-10-26T19:41:49;14.70;99.90
9157;DHT22;4613;48.392;9.998;2022-10-26T19:44:38;14.70;99.90
9157;DHT22;4613;48.392;9.998;2022-10-26T19:47:28;14.60;99.90
9157;DHT22;4613;48.392;9.998;2022-10-26T19:50:18;14.50;99.90
9157;DHT22;4613;48.392;9.998;2022-10-26T19:53:07;14.60;99.90
9157;DHT22;4613;48.392;9.998;2022-10-26T19:55:58;14.50;99.90
9157;DHT22;4613;48.392;9.998;2022-10-26T19:58:48;14.50;99.90
9157;DHT22;4613;48.392;9.998;2022-10-26T20:01:39;14.40;99.90
9157;DHT22;4613;48.392;9.998;2022-10-26T20:04:28;14.50;99.90
9157;DHT22;4613;48.392;9.998;2022-10-26T20:07:18;14.70;99.90
9157;DHT22;4613;48.392;9.998;2022-10-26T20:10:08;14.70;99.90
9157;DHT22;4613;48.392;9.998;2022-10-26T20:13:00;14.80;99.90
9157;DHT22;4613;48.392;9.998;2022-10-26T20:15:52;14.80;99.90
9157;DHT22;4613;48.392;9.998;2022-10-26T20:18:41;14.50;99.90